createdAt,value
2018-03-07T00:00:34.082Z,982.51
2018-03-07T00:01:39.578Z,982.52
2018-03-07T00:02:46.099Z,982.52
2018-03-07T00:03:51.136Z,982.56
2018-03-07T00:04:57.101Z,982.50
2018-03-07T00:06:01.642Z,982.50
2018-03-07T00:07:07.635Z,982.52
2018-03-07T00:08:13.666Z,982.49
2018-03-07T00:09:18.195Z,982.52
2018-03-07T00:10:24.750Z,982.54
2018-03-07T00:11:29.182Z,982.54
2018-03-07T00:12:34.769Z,982.55
2018-03-07T00:13:41.238Z,982.55
2018-03-07T00:14:45.763Z,982.52
2018-03-07T00:15:52.244Z,982.57
2018-03-07T00:16:56.733Z,982.56
2018-03-07T00:18:02.248Z,982.55
2018-03-07T00:19:08.775Z,982.59
2018-03-07T00:20:14.141Z,982.58
2018-03-07T00:21:19.800Z,982.61
2018-03-07T00:22:24.296Z,982.58
2018-03-07T00:23:29.776Z,982.60
2018-03-07T00:24:36.342Z,982.61
2018-03-07T00:25:40.830Z,982.61
2018-03-07T00:26:47.343Z,982.62
2018-03-07T00:27:51.856Z,982.61
2018-03-07T00:28:57.356Z,982.60
2018-03-07T00:30:03.884Z,982.62
2018-03-07T00:31:08.396Z,982.68
2018-03-07T00:32:14.936Z,982.64
2018-03-07T00:33:19.411Z,982.64
2018-03-07T00:34:24.934Z,982.61
2018-03-07T00:35:31.438Z,982.62
2018-03-07T00:36:35.953Z,982.61
2018-03-07T00:37:42.470Z,982.63
2018-03-07T00:38:46.971Z,982.60
2018-03-07T00:39:52.489Z,982.58
2018-03-07T00:40:59.008Z,982.59
2018-03-07T00:42:03.492Z,982.61
2018-03-07T00:43:10.037Z,982.59
2018-03-07T00:44:14.526Z,982.58
2018-03-07T00:45:20.043Z,982.56
2018-03-07T00:46:26.559Z,982.52
2018-03-07T00:47:31.052Z,982.59
2018-03-07T00:48:37.625Z,982.60
2018-03-07T00:49:42.129Z,982.56
2018-03-07T00:50:47.588Z,982.59
2018-03-07T00:51:54.107Z,982.58
2018-03-07T00:52:58.616Z,982.62
2018-03-07T00:54:05.139Z,982.57
2018-03-07T00:55:09.640Z,982.57
2018-03-07T00:56:15.131Z,982.55
2018-03-07T00:57:21.671Z,982.56
2018-03-07T00:58:26.154Z,982.52
2018-03-07T00:59:32.682Z,982.53
2018-03-07T01:00:37.174Z,982.57
2018-03-07T01:01:42.724Z,982.52
2018-03-07T01:02:49.208Z,982.51
2018-03-07T01:03:53.707Z,982.51
2018-03-07T01:05:00.244Z,982.46
2018-03-07T01:06:04.735Z,982.46
2018-03-07T01:07:10.251Z,982.47
2018-03-07T01:08:16.757Z,982.49
2018-03-07T01:09:21.268Z,982.49
2018-03-07T01:10:27.796Z,982.51
2018-03-07T01:11:32.283Z,982.49
2018-03-07T01:12:37.802Z,982.48
2018-03-07T01:13:44.324Z,982.50
2018-03-07T01:14:48.825Z,982.47
2018-03-07T01:15:55.336Z,982.51
2018-03-07T01:16:59.836Z,982.48
2018-03-07T01:18:05.367Z,982.50
2018-03-07T01:19:11.877Z,982.49
2018-03-07T01:20:16.382Z,982.53
2018-03-07T01:21:22.899Z,982.51
2018-03-07T01:22:27.401Z,982.50
2018-03-07T01:23:32.900Z,982.50
2018-03-07T01:24:39.425Z,982.45
2018-03-07T01:25:43.942Z,982.46
2018-03-07T01:26:50.521Z,982.44
2018-03-07T01:27:54.949Z,982.45
2018-03-07T01:29:00.445Z,982.44
2018-03-07T01:30:06.973Z,982.43
2018-03-07T01:31:11.542Z,982.41
2018-03-07T01:32:18.005Z,982.40
2018-03-07T01:33:22.502Z,982.43
2018-03-07T01:34:28.017Z,982.44
2018-03-07T01:35:34.526Z,982.41
2018-03-07T01:36:39.024Z,982.42
2018-03-07T01:37:45.549Z,982.44
2018-03-07T01:38:50.054Z,982.36
2018-03-07T01:39:55.568Z,982.38
2018-03-07T01:41:02.077Z,982.38
2018-03-07T01:42:06.589Z,982.37
2018-03-07T01:43:13.108Z,982.36
2018-03-07T01:44:17.603Z,982.35
2018-03-07T01:45:23.117Z,982.34
2018-03-07T01:46:29.642Z,982.31
2018-03-07T01:47:34.144Z,982.32
2018-03-07T01:48:40.657Z,982.33
2018-03-07T01:49:45.148Z,982.25
2018-03-07T01:50:50.680Z,982.29
2018-03-07T01:51:57.188Z,982.32
2018-03-07T01:53:01.690Z,982.28
2018-03-07T01:54:08.201Z,982.22
2018-03-07T01:55:12.716Z,982.22
2018-03-07T01:56:18.220Z,982.19
2018-03-07T01:57:24.741Z,982.20
2018-03-07T01:58:29.247Z,982.17
2018-03-07T01:59:35.757Z,982.19
2018-03-07T02:00:40.263Z,982.20
2018-03-07T02:01:45.782Z,982.18
2018-03-07T02:02:52.320Z,982.21
2018-03-07T02:03:57.703Z,982.15
2018-03-07T02:05:03.357Z,982.19
2018-03-07T02:06:07.893Z,982.18
2018-03-07T02:07:13.320Z,982.17
2018-03-07T02:08:19.849Z,982.13
2018-03-07T02:09:24.339Z,982.16
2018-03-07T02:10:30.850Z,982.12
2018-03-07T02:11:35.370Z,982.13
2018-03-07T02:12:40.872Z,982.12
2018-03-07T02:13:47.401Z,982.09
2018-03-07T02:14:51.891Z,982.10
2018-03-07T02:15:58.422Z,982.10
2018-03-07T02:17:02.915Z,982.13
2018-03-07T02:18:08.416Z,982.09
2018-03-07T02:19:14.941Z,982.09
2018-03-07T02:20:19.463Z,982.09
2018-03-07T02:21:25.972Z,982.12
2018-03-07T02:22:30.465Z,982.10
2018-03-07T02:23:35.968Z,982.14
2018-03-07T02:24:42.485Z,982.13
2018-03-07T02:25:46.987Z,982.12
2018-03-07T02:26:53.528Z,982.13
2018-03-07T02:27:58.011Z,982.14
2018-03-07T02:29:03.516Z,982.11
2018-03-07T02:30:10.045Z,982.15
2018-03-07T02:31:14.544Z,982.10
2018-03-07T02:32:21.064Z,982.14
2018-03-07T02:33:25.566Z,982.07
2018-03-07T02:34:31.098Z,982.09
2018-03-07T02:35:37.589Z,982.09
2018-03-07T02:36:42.091Z,982.08
2018-03-07T02:37:48.616Z,982.08
2018-03-07T02:38:53.270Z,982.09
2018-03-07T02:39:58.627Z,982.10
2018-03-07T02:41:05.144Z,982.11
2018-03-07T02:42:09.635Z,982.11
2018-03-07T02:43:16.175Z,982.11
2018-03-07T02:44:20.663Z,982.11
2018-03-07T02:45:26.167Z,982.10
2018-03-07T02:46:32.689Z,982.12
2018-03-07T02:47:37.194Z,982.15
2018-03-07T02:48:43.729Z,982.12
2018-03-07T02:49:48.213Z,982.09
2018-03-07T02:50:53.727Z,982.10
2018-03-07T02:52:00.249Z,982.12
2018-03-07T02:53:04.738Z,982.16
2018-03-07T02:54:11.257Z,982.09
2018-03-07T02:55:15.769Z,982.13
2018-03-07T02:56:21.272Z,982.13
2018-03-07T02:57:27.804Z,982.11
2018-03-07T02:58:32.296Z,982.09
2018-03-07T02:59:38.809Z,982.13
2018-03-07T03:00:43.318Z,982.13
2018-03-07T03:01:48.821Z,982.12
2018-03-07T03:02:55.343Z,982.13
2018-03-07T03:03:59.844Z,982.12
2018-03-07T03:05:06.364Z,982.13
2018-03-07T03:06:10.867Z,982.15
2018-03-07T03:07:16.373Z,982.14
2018-03-07T03:08:22.886Z,982.18
2018-03-07T03:09:27.399Z,982.15
2018-03-07T03:10:33.910Z,982.20
2018-03-07T03:11:38.409Z,982.17
2018-03-07T03:12:43.936Z,982.19
2018-03-07T03:13:50.443Z,982.19
2018-03-07T03:14:54.937Z,982.21
2018-03-07T03:16:01.459Z,982.23
2018-03-07T03:17:05.957Z,982.21
2018-03-07T03:18:11.467Z,982.24
2018-03-07T03:19:17.981Z,982.26
2018-03-07T03:20:22.500Z,982.30
2018-03-07T03:21:29.025Z,982.31
2018-03-07T03:22:33.514Z,982.26
2018-03-07T03:23:39.021Z,982.31
2018-03-07T03:24:45.540Z,982.28
2018-03-07T03:25:50.033Z,982.29
2018-03-07T03:26:56.579Z,982.33
2018-03-07T03:28:01.051Z,982.32
2018-03-07T03:29:06.563Z,982.35
2018-03-07T03:30:13.089Z,982.32
2018-03-07T03:31:17.595Z,982.32
2018-03-07T03:32:24.107Z,982.34
2018-03-07T03:33:28.616Z,982.34
2018-03-07T03:34:34.117Z,982.30
2018-03-07T03:35:40.637Z,982.33
2018-03-07T03:36:45.137Z,982.32
2018-03-07T03:37:51.658Z,982.32
2018-03-07T03:38:56.155Z,982.34
2018-03-07T03:40:01.694Z,982.34
2018-03-07T03:41:08.197Z,982.34
2018-03-07T03:42:12.686Z,982.32
2018-03-07T03:43:19.206Z,982.35
2018-03-07T03:44:23.705Z,982.34
2018-03-07T03:45:29.217Z,982.40
2018-03-07T03:46:35.750Z,982.38
2018-03-07T03:47:40.234Z,982.42
2018-03-07T03:48:46.748Z,982.40
2018-03-07T03:49:51.258Z,982.44
2018-03-07T03:50:56.758Z,982.40
2018-03-07T03:52:03.284Z,982.41
2018-03-07T03:53:07.786Z,982.40
2018-03-07T03:54:14.321Z,982.40
2018-03-07T03:55:18.797Z,982.38
2018-03-07T03:56:24.312Z,982.37
2018-03-07T03:57:30.831Z,982.40
2018-03-07T03:58:35.329Z,982.41
2018-03-07T03:59:41.847Z,982.44
2018-03-07T04:00:46.347Z,982.42
2018-03-07T04:01:51.860Z,982.42
2018-03-07T04:02:58.379Z,982.46
2018-03-07T04:04:02.879Z,982.46
2018-03-07T04:05:09.407Z,982.45
2018-03-07T04:06:13.894Z,982.46
2018-03-07T04:07:19.410Z,982.46
2018-03-07T04:08:25.929Z,982.49
2018-03-07T04:09:30.428Z,982.45
2018-03-07T04:10:36.952Z,982.48
2018-03-07T04:11:41.453Z,982.49
2018-03-07T04:12:46.962Z,982.49
2018-03-07T04:13:53.472Z,982.52
2018-03-07T04:14:57.970Z,982.52
2018-03-07T04:16:04.499Z,982.49
2018-03-07T04:17:09.004Z,982.53
2018-03-07T04:18:14.504Z,982.50
2018-03-07T04:19:21.027Z,982.48
2018-03-07T04:20:25.537Z,982.47
2018-03-07T04:21:32.041Z,982.52
2018-03-07T04:22:36.556Z,982.45
2018-03-07T04:23:42.039Z,982.50
2018-03-07T04:24:48.580Z,982.51
2018-03-07T04:25:53.076Z,982.52
2018-03-07T04:26:59.599Z,982.51
2018-03-07T04:28:04.094Z,982.51
2018-03-07T04:29:09.603Z,982.55
2018-03-07T04:30:16.125Z,982.53
2018-03-07T04:31:20.624Z,982.52
2018-03-07T04:32:27.131Z,982.50
2018-03-07T04:33:31.629Z,982.55
2018-03-07T04:34:37.139Z,982.52
2018-03-07T04:35:43.671Z,982.56
2018-03-07T04:36:48.168Z,982.54
2018-03-07T04:37:54.693Z,982.50
2018-03-07T04:38:59.180Z,982.50
2018-03-07T04:40:04.684Z,982.49
2018-03-07T04:41:11.205Z,982.47
2018-03-07T04:42:15.707Z,982.49
2018-03-07T04:43:22.232Z,982.49
2018-03-07T04:44:26.740Z,982.48
2018-03-07T04:45:32.315Z,982.50
2018-03-07T04:46:38.759Z,982.52
2018-03-07T04:47:43.253Z,982.50
2018-03-07T04:48:49.781Z,982.48
2018-03-07T04:49:54.271Z,982.49
2018-03-07T04:50:59.784Z,982.49
2018-03-07T04:52:06.300Z,982.49
2018-03-07T04:53:10.810Z,982.47
2018-03-07T04:54:17.318Z,982.49
2018-03-07T04:55:21.820Z,982.48
2018-03-07T04:56:27.327Z,982.46
2018-03-07T04:57:33.856Z,982.50
2018-03-07T04:58:38.346Z,982.52
2018-03-07T04:59:44.871Z,982.49
2018-03-07T05:00:49.381Z,982.49
2018-03-07T05:01:54.872Z,982.52
2018-03-07T05:03:01.399Z,982.52
2018-03-07T05:04:05.910Z,982.48
2018-03-07T05:05:12.413Z,982.47
2018-03-07T05:06:16.915Z,982.49
2018-03-07T05:07:22.423Z,982.50
2018-03-07T05:08:28.939Z,982.53
2018-03-07T05:09:33.441Z,982.55
2018-03-07T05:10:39.973Z,982.55
2018-03-07T05:11:44.460Z,982.56
2018-03-07T05:12:49.989Z,982.55
2018-03-07T05:13:56.486Z,982.59
2018-03-07T05:15:01.016Z,982.53
2018-03-07T05:16:07.519Z,982.59
2018-03-07T05:17:11.996Z,982.57
2018-03-07T05:18:17.522Z,982.56
2018-03-07T05:19:24.042Z,982.58
2018-03-07T05:20:28.528Z,982.57
2018-03-07T05:21:35.054Z,982.59
2018-03-07T05:22:39.555Z,982.60
2018-03-07T05:23:45.058Z,982.60
2018-03-07T05:24:51.580Z,982.58
2018-03-07T05:25:56.085Z,982.60
2018-03-07T05:27:02.603Z,982.62
2018-03-07T05:28:07.097Z,982.61
2018-03-07T05:29:12.605Z,982.59
2018-03-07T05:30:19.140Z,982.64
2018-03-07T05:31:23.627Z,982.63
2018-03-07T05:32:30.140Z,982.63
2018-03-07T05:33:34.648Z,982.64
2018-03-07T05:34:40.149Z,982.65
2018-03-07T05:35:46.677Z,982.66
2018-03-07T05:36:51.165Z,982.66
2018-03-07T05:37:57.686Z,982.69
2018-03-07T05:39:02.183Z,982.68
2018-03-07T05:40:07.699Z,982.68
2018-03-07T05:41:14.213Z,982.68
2018-03-07T05:42:18.723Z,982.74
2018-03-07T05:43:25.250Z,982.75
2018-03-07T05:44:29.731Z,982.74
2018-03-07T05:45:35.234Z,982.72
2018-03-07T05:46:41.760Z,982.70
2018-03-07T05:47:46.263Z,982.72
2018-03-07T05:48:52.767Z,982.78
2018-03-07T05:49:57.276Z,982.73
2018-03-07T05:51:02.781Z,982.78
2018-03-07T05:52:09.295Z,982.78
2018-03-07T05:53:13.805Z,982.82
2018-03-07T05:54:20.314Z,982.76
2018-03-07T05:55:24.820Z,982.75
2018-03-07T05:56:30.339Z,982.77
2018-03-07T05:57:36.855Z,982.76
2018-03-07T05:58:41.346Z,982.80
2018-03-07T05:59:47.864Z,982.79
2018-03-07T06:00:52.366Z,982.82
2018-03-07T06:01:57.872Z,982.81
2018-03-07T06:03:04.392Z,982.77
2018-03-07T06:04:08.894Z,982.82
2018-03-07T06:05:15.413Z,982.82
2018-03-07T06:06:19.929Z,982.81
2018-03-07T06:07:25.409Z,982.84
2018-03-07T06:08:31.943Z,982.86
2018-03-07T06:09:36.437Z,982.90
2018-03-07T06:10:42.966Z,982.88
2018-03-07T06:11:47.451Z,982.91
2018-03-07T06:12:52.955Z,982.93
2018-03-07T06:13:59.476Z,982.91
2018-03-07T06:15:03.996Z,982.93
2018-03-07T06:16:10.501Z,982.93
2018-03-07T06:17:14.995Z,982.97
2018-03-07T06:18:20.504Z,982.95
2018-03-07T06:19:27.034Z,982.99
2018-03-07T06:20:31.514Z,983.00
2018-03-07T06:21:38.034Z,983.02
2018-03-07T06:22:42.526Z,983.06
2018-03-07T06:23:48.046Z,983.03
2018-03-07T06:24:54.563Z,983.05
2018-03-07T06:25:59.054Z,983.07
2018-03-07T06:27:05.579Z,983.11
2018-03-07T06:28:10.078Z,983.11
2018-03-07T06:29:15.595Z,983.07
2018-03-07T06:30:22.110Z,983.09
2018-03-07T06:31:26.619Z,983.12
2018-03-07T06:32:33.121Z,983.17
2018-03-07T06:33:37.620Z,983.15
2018-03-07T06:34:43.128Z,983.14
2018-03-07T06:35:49.661Z,983.12
2018-03-07T06:36:54.150Z,983.10
2018-03-07T06:38:00.667Z,983.12
2018-03-07T06:39:05.166Z,983.11
2018-03-07T06:40:10.677Z,983.07
2018-03-07T06:41:17.282Z,983.11
2018-03-07T06:42:21.685Z,983.12
2018-03-07T06:43:28.206Z,983.12
2018-03-07T06:44:32.714Z,983.15
2018-03-07T06:45:38.266Z,983.21
2018-03-07T06:46:44.737Z,983.21
2018-03-07T06:47:49.224Z,983.20
2018-03-07T06:48:55.755Z,983.23
2018-03-07T06:50:00.251Z,983.26
2018-03-07T06:51:05.761Z,983.22
2018-03-07T06:52:12.279Z,983.21
2018-03-07T06:53:16.767Z,983.25
2018-03-07T06:54:23.288Z,983.24
2018-03-07T06:55:27.790Z,983.26
2018-03-07T06:56:33.320Z,983.25
2018-03-07T06:57:39.814Z,983.28
2018-03-07T06:58:44.332Z,983.28
2018-03-07T06:59:50.844Z,983.30
2018-03-07T07:00:55.338Z,983.33
2018-03-07T07:02:00.843Z,983.33
2018-03-07T07:03:07.359Z,983.31
2018-03-07T07:04:11.854Z,983.34
2018-03-07T07:05:18.376Z,983.32
2018-03-07T07:06:22.874Z,983.32
2018-03-07T07:07:28.390Z,983.32
2018-03-07T07:08:34.914Z,983.33
2018-03-07T07:09:39.405Z,983.34
2018-03-07T07:10:45.930Z,983.34
2018-03-07T07:11:50.419Z,983.40
2018-03-07T07:12:55.931Z,983.41
2018-03-07T07:14:02.458Z,983.41
2018-03-07T07:15:06.946Z,983.40
2018-03-07T07:16:13.472Z,983.39
2018-03-07T07:17:17.961Z,983.44
2018-03-07T07:18:23.481Z,983.43
2018-03-07T07:19:29.993Z,983.43
2018-03-07T07:20:34.496Z,983.40
2018-03-07T07:21:41.004Z,983.43
2018-03-07T07:22:45.510Z,983.42
2018-03-07T07:23:51.009Z,983.41
2018-03-07T07:24:57.529Z,983.44
2018-03-07T07:26:02.051Z,983.46
2018-03-07T07:27:08.554Z,983.44
2018-03-07T07:28:13.054Z,983.45
2018-03-07T07:29:18.560Z,983.43
2018-03-07T07:30:25.076Z,983.46
2018-03-07T07:31:29.582Z,983.44
2018-03-07T07:32:36.105Z,983.42
2018-03-07T07:33:40.588Z,983.47
2018-03-07T07:34:46.113Z,983.47
2018-03-07T07:35:52.620Z,983.47
2018-03-07T07:36:57.117Z,983.43
2018-03-07T07:38:03.631Z,983.45
2018-03-07T07:39:08.134Z,983.48
2018-03-07T07:40:13.633Z,983.47
2018-03-07T07:41:20.154Z,983.47
2018-03-07T07:42:24.654Z,983.46
2018-03-07T07:43:31.177Z,983.48
2018-03-07T07:44:35.667Z,983.50
2018-03-07T07:45:41.181Z,983.52
2018-03-07T07:46:47.712Z,983.51
2018-03-07T07:47:52.200Z,983.52
2018-03-07T07:48:58.728Z,983.52
2018-03-07T07:50:03.222Z,983.54
2018-03-07T07:51:08.720Z,983.53
2018-03-07T07:52:15.266Z,983.50
2018-03-07T07:53:19.738Z,983.53
2018-03-07T07:54:26.296Z,983.55
2018-03-07T07:55:30.766Z,983.59
2018-03-07T07:56:36.282Z,983.60
2018-03-07T07:57:42.818Z,983.57
2018-03-07T07:58:47.292Z,983.60
2018-03-07T07:59:53.816Z,983.59
2018-03-07T08:00:58.332Z,983.60
2018-03-07T08:02:03.810Z,983.62
2018-03-07T08:03:10.347Z,983.61
2018-03-07T08:04:14.832Z,983.63
2018-03-07T08:05:21.364Z,983.64
2018-03-07T08:06:25.871Z,983.60
2018-03-07T08:07:31.361Z,983.52
2018-03-07T08:08:37.905Z,983.56
2018-03-07T08:09:42.397Z,983.54
2018-03-07T08:10:48.916Z,983.54
2018-03-07T08:11:53.430Z,983.53
2018-03-07T08:12:58.913Z,983.53
2018-03-07T08:14:05.450Z,983.54
2018-03-07T08:15:09.946Z,983.52
2018-03-07T08:16:16.463Z,983.55
2018-03-07T08:17:20.951Z,983.52
2018-03-07T08:18:26.466Z,983.54
2018-03-07T08:19:32.994Z,983.54
2018-03-07T08:20:37.466Z,983.50
2018-03-07T08:21:44.018Z,983.54
2018-03-07T08:22:48.506Z,983.46
2018-03-07T08:23:53.998Z,983.45
2018-03-07T08:25:00.527Z,983.43
2018-03-07T08:26:05.025Z,983.41
2018-03-07T08:27:11.546Z,983.39
2018-03-07T08:28:16.040Z,983.39
2018-03-07T08:29:21.562Z,983.38
2018-03-07T08:30:28.070Z,983.38
2018-03-07T08:31:32.581Z,983.41
2018-03-07T08:32:39.090Z,983.37
2018-03-07T08:33:43.600Z,983.40
2018-03-07T08:34:49.102Z,983.42
2018-03-07T08:35:55.637Z,983.40
2018-03-07T08:37:00.155Z,983.44
2018-03-07T08:38:06.647Z,983.43
2018-03-07T08:39:11.131Z,983.43
2018-03-07T08:40:16.652Z,983.45
2018-03-07T08:41:23.192Z,983.47
2018-03-07T08:42:27.679Z,983.49
2018-03-07T08:43:34.195Z,983.51
2018-03-07T08:44:38.711Z,983.53
2018-03-07T08:45:44.219Z,983.58
2018-03-07T08:46:50.727Z,983.57
2018-03-07T08:47:55.238Z,983.57
2018-03-07T08:49:01.741Z,983.58
2018-03-07T08:50:06.240Z,983.58
2018-03-07T08:51:11.760Z,983.55
2018-03-07T08:52:18.282Z,983.54
2018-03-07T08:53:22.776Z,983.56
2018-03-07T08:54:29.304Z,983.54
2018-03-07T08:55:33.805Z,983.52
2018-03-07T08:56:39.331Z,983.54
2018-03-07T08:57:45.846Z,983.55
2018-03-07T08:58:50.338Z,983.56
2018-03-07T08:59:56.860Z,983.59
2018-03-07T09:01:01.369Z,983.65
2018-03-07T09:02:06.876Z,983.64
2018-03-07T09:03:13.396Z,983.67
2018-03-07T09:04:17.880Z,983.67
2018-03-07T09:05:24.423Z,983.68
2018-03-07T09:06:28.926Z,983.69
2018-03-07T09:07:34.427Z,983.73
2018-03-07T09:08:40.949Z,983.71
2018-03-07T09:09:45.445Z,983.71
2018-03-07T09:10:51.970Z,983.73
2018-03-07T09:11:56.464Z,983.70
2018-03-07T09:13:01.973Z,983.72
2018-03-07T09:14:08.512Z,983.74
2018-03-07T09:15:13.003Z,983.78
2018-03-07T09:16:19.527Z,983.77
2018-03-07T09:17:24.036Z,983.80
2018-03-07T09:18:29.528Z,983.83
2018-03-07T09:19:36.058Z,983.81
2018-03-07T09:20:40.564Z,983.79
2018-03-07T09:21:47.078Z,983.82
2018-03-07T09:22:51.589Z,983.84
2018-03-07T09:23:57.089Z,983.84
2018-03-07T09:25:03.620Z,983.88
2018-03-07T09:26:08.130Z,983.85
2018-03-07T09:27:14.659Z,983.86
2018-03-07T09:28:19.135Z,983.87
2018-03-07T09:29:24.654Z,983.92
2018-03-07T09:30:31.176Z,983.92
2018-03-07T09:31:35.676Z,983.90
2018-03-07T09:32:42.213Z,983.93
2018-03-07T09:33:46.708Z,983.94
2018-03-07T09:34:52.207Z,983.94
2018-03-07T09:35:58.764Z,983.93
2018-03-07T09:37:03.239Z,983.95
2018-03-07T09:38:09.762Z,983.87
2018-03-07T09:39:14.264Z,983.95
2018-03-07T09:40:19.770Z,983.94
2018-03-07T09:41:26.295Z,983.95
2018-03-07T09:42:30.814Z,983.91
2018-03-07T09:43:37.313Z,983.92
2018-03-07T09:44:41.827Z,983.91
2018-03-07T09:45:47.360Z,983.89
2018-03-07T09:46:53.881Z,983.94
2018-03-07T09:47:58.369Z,983.90
2018-03-07T09:49:04.895Z,983.96
2018-03-07T09:50:09.395Z,983.97
2018-03-07T09:51:14.890Z,983.90
2018-03-07T09:52:21.438Z,983.96
2018-03-07T09:53:26.759Z,983.91
2018-03-07T09:54:32.448Z,983.93
2018-03-07T09:55:36.958Z,983.94
2018-03-07T09:56:42.471Z,983.89
2018-03-07T09:57:49.022Z,983.93
2018-03-07T09:58:53.500Z,983.96
2018-03-07T10:00:00.013Z,983.92
2018-03-07T10:01:04.512Z,983.93
2018-03-07T10:02:10.022Z,983.92
2018-03-07T10:03:16.546Z,983.95
2018-03-07T10:04:21.074Z,983.91
2018-03-07T10:05:27.595Z,983.92
2018-03-07T10:06:32.077Z,983.93
2018-03-07T10:07:37.593Z,983.94
2018-03-07T10:08:44.123Z,983.92
2018-03-07T10:09:48.622Z,983.97
2018-03-07T10:10:55.151Z,983.98
2018-03-07T10:11:59.658Z,983.98
2018-03-07T10:13:05.155Z,983.99
2018-03-07T10:14:11.685Z,984.01
2018-03-07T10:15:16.180Z,984.00
2018-03-07T10:16:22.705Z,984.04
2018-03-07T10:17:27.215Z,984.03
2018-03-07T10:18:32.726Z,984.04
2018-03-07T10:19:39.255Z,984.03
2018-03-07T10:20:43.742Z,984.02
2018-03-07T10:21:50.297Z,984.07
2018-03-07T10:22:54.815Z,984.03
2018-03-07T10:24:00.305Z,984.01
2018-03-07T10:25:06.812Z,984.05
2018-03-07T10:26:11.312Z,984.02
2018-03-07T10:27:17.834Z,984.04
2018-03-07T10:28:22.340Z,984.04
2018-03-07T10:29:27.857Z,984.04
2018-03-07T10:30:34.382Z,984.03
2018-03-07T10:31:38.872Z,984.06
2018-03-07T10:32:45.395Z,984.03
2018-03-07T10:33:49.901Z,984.03
2018-03-07T10:34:55.420Z,984.03
2018-03-07T10:36:01.967Z,984.05
2018-03-07T10:37:06.931Z,984.09
2018-03-07T10:38:12.961Z,984.12
2018-03-07T10:39:17.477Z,984.09
2018-03-07T10:40:22.982Z,984.08
2018-03-07T10:41:29.522Z,984.12
2018-03-07T10:42:34.008Z,984.11
2018-03-07T10:43:40.542Z,984.13
2018-03-07T10:44:45.041Z,984.14
2018-03-07T10:45:50.550Z,984.21
2018-03-07T10:46:57.089Z,984.25
2018-03-07T10:48:01.583Z,984.27
2018-03-07T10:49:08.101Z,984.26
2018-03-07T10:50:12.617Z,984.26
2018-03-07T10:51:18.130Z,984.29
2018-03-07T10:52:24.648Z,984.31
2018-03-07T10:53:29.137Z,984.33
2018-03-07T10:54:35.677Z,984.30
2018-03-07T10:55:40.177Z,984.36
2018-03-07T10:56:45.677Z,984.29
2018-03-07T10:57:52.209Z,984.38
2018-03-07T10:58:56.700Z,984.35
2018-03-07T11:00:03.253Z,984.37
2018-03-07T11:01:07.743Z,984.39
2018-03-07T11:02:13.249Z,984.36
2018-03-07T11:03:19.781Z,984.35
2018-03-07T11:04:24.268Z,984.36
2018-03-07T11:05:30.817Z,984.38
2018-03-07T11:06:35.308Z,984.37
2018-03-07T11:07:40.816Z,984.39
2018-03-07T11:08:47.365Z,984.37
2018-03-07T11:09:51.828Z,984.39
2018-03-07T11:10:58.368Z,984.35
2018-03-07T11:12:02.885Z,984.36
2018-03-07T11:13:08.377Z,984.35
2018-03-07T11:14:14.894Z,984.35
2018-03-07T11:15:19.398Z,984.38
2018-03-07T11:16:25.923Z,984.36
2018-03-07T11:17:30.424Z,984.34
2018-03-07T11:18:35.947Z,984.36
2018-03-07T11:19:42.468Z,984.39
2018-03-07T11:20:46.966Z,984.42
2018-03-07T11:21:53.539Z,984.35
2018-03-07T11:22:58.007Z,984.42
2018-03-07T11:24:03.516Z,984.39
2018-03-07T11:25:10.046Z,984.44
2018-03-07T11:26:14.539Z,984.41
2018-03-07T11:27:21.071Z,984.45
2018-03-07T11:28:25.563Z,984.44
2018-03-07T11:29:31.074Z,984.47
2018-03-07T11:30:37.597Z,984.49
2018-03-07T11:31:42.100Z,984.40
2018-03-07T11:32:48.634Z,984.48
2018-03-07T11:33:53.128Z,984.48
2018-03-07T11:34:58.637Z,984.48
2018-03-07T11:36:05.162Z,984.53
2018-03-07T11:37:09.669Z,984.44
2018-03-07T11:38:16.182Z,984.47
2018-03-07T11:39:20.692Z,984.46
2018-03-07T11:40:26.198Z,984.49
2018-03-07T11:41:32.728Z,984.48
2018-03-07T11:42:37.234Z,984.48
2018-03-07T11:43:43.757Z,984.49
2018-03-07T11:44:48.272Z,984.54
2018-03-07T11:45:53.777Z,984.53
2018-03-07T11:47:00.300Z,984.51
2018-03-07T11:48:04.806Z,984.53
2018-03-07T11:49:11.312Z,984.55
2018-03-07T11:50:15.821Z,984.55
2018-03-07T11:51:21.367Z,984.54
2018-03-07T11:52:27.864Z,984.55
2018-03-07T11:53:32.377Z,984.57
2018-03-07T11:54:38.888Z,984.57
2018-03-07T11:55:43.392Z,984.58
2018-03-07T11:56:48.901Z,984.52
2018-03-07T11:57:55.431Z,984.50
2018-03-07T11:58:59.918Z,984.49
2018-03-07T12:00:06.456Z,984.50
2018-03-07T12:01:10.952Z,984.47
2018-03-07T12:02:16.458Z,984.48
2018-03-07T12:03:22.992Z,984.48
2018-03-07T12:04:27.497Z,984.49
2018-03-07T12:05:34.017Z,984.51
2018-03-07T12:06:38.524Z,984.52
2018-03-07T12:07:44.025Z,984.48
2018-03-07T12:08:50.569Z,984.51
2018-03-07T12:09:55.051Z,984.53
2018-03-07T12:11:01.582Z,984.48
2018-03-07T12:12:06.082Z,984.53
2018-03-07T12:13:11.606Z,984.51
2018-03-07T12:14:18.155Z,984.46
2018-03-07T12:15:22.626Z,984.50
2018-03-07T12:16:29.153Z,984.53
2018-03-07T12:17:33.687Z,984.51
2018-03-07T12:18:39.172Z,984.51
2018-03-07T12:19:45.671Z,984.49
2018-03-07T12:20:50.181Z,984.48
2018-03-07T12:21:56.716Z,984.49
2018-03-07T12:23:01.196Z,984.45
2018-03-07T12:24:06.722Z,984.42
2018-03-07T12:25:13.240Z,984.44
2018-03-07T12:26:17.775Z,984.42
2018-03-07T12:27:24.275Z,984.42
2018-03-07T12:28:28.766Z,984.41
2018-03-07T12:29:34.299Z,984.43
2018-03-07T12:30:40.800Z,984.43
2018-03-07T12:31:45.296Z,984.37
2018-03-07T12:32:51.846Z,984.46
2018-03-07T12:33:56.332Z,984.44
2018-03-07T12:35:01.855Z,984.48
2018-03-07T12:36:08.376Z,984.52
2018-03-07T12:37:12.878Z,984.48
2018-03-07T12:38:19.403Z,984.52
2018-03-07T12:39:23.897Z,984.51
2018-03-07T12:40:29.416Z,984.54
2018-03-07T12:41:35.931Z,984.51
2018-03-07T12:42:40.434Z,984.49
2018-03-07T12:43:46.957Z,984.49
2018-03-07T12:44:51.476Z,984.52
2018-03-07T12:45:56.976Z,984.51
2018-03-07T12:47:03.522Z,984.48
2018-03-07T12:48:08.013Z,984.45
2018-03-07T12:49:14.516Z,984.52
2018-03-07T12:50:19.020Z,984.52
2018-03-07T12:51:24.535Z,984.50
2018-03-07T12:52:31.054Z,984.53
2018-03-07T12:53:35.574Z,984.51
2018-03-07T12:54:42.077Z,984.53
2018-03-07T12:55:46.578Z,984.54
2018-03-07T12:56:52.104Z,984.50
2018-03-07T12:57:58.722Z,984.48
2018-03-07T12:59:03.137Z,984.49
2018-03-07T13:00:09.659Z,984.53
2018-03-07T13:01:14.163Z,984.54
2018-03-07T13:02:19.690Z,984.52
2018-03-07T13:03:26.176Z,984.55
2018-03-07T13:04:30.695Z,984.51
2018-03-07T13:05:37.203Z,984.54
2018-03-07T13:06:41.703Z,984.50
2018-03-07T13:07:47.218Z,984.57
2018-03-07T13:08:53.738Z,984.53
2018-03-07T13:09:58.248Z,984.56
2018-03-07T13:11:04.771Z,984.57
2018-03-07T13:12:09.263Z,984.56
2018-03-07T13:13:14.775Z,984.55
2018-03-07T13:14:21.293Z,984.55
2018-03-07T13:15:25.818Z,984.58
2018-03-07T13:16:32.329Z,984.55
2018-03-07T13:17:36.827Z,984.57
2018-03-07T13:18:42.338Z,984.57
2018-03-07T13:19:48.855Z,984.57
2018-03-07T13:20:53.353Z,984.58
2018-03-07T13:21:59.893Z,984.58
2018-03-07T13:23:04.389Z,984.57
2018-03-07T13:24:09.894Z,984.58
2018-03-07T13:25:16.428Z,984.58
2018-03-07T13:26:20.921Z,984.61
2018-03-07T13:27:27.447Z,984.63
2018-03-07T13:28:31.954Z,984.62
2018-03-07T13:29:37.465Z,984.65
2018-03-07T13:30:43.975Z,984.61
2018-03-07T13:31:48.482Z,984.60
2018-03-07T13:32:55.014Z,984.56
2018-03-07T13:33:59.504Z,984.58
2018-03-07T13:35:05.040Z,984.58
2018-03-07T13:36:11.536Z,984.57
2018-03-07T13:37:16.108Z,984.54